sensor_id;sensor_type;location;lat;lon;timestamp;temperature;humidity
55771;DHT22;41687;-33.234;-60.334;2023-08-08T00:01:10;9.80;65.80
55771;DHT22;41687;-33.234;-60.334;2023-08-08T00:03:37;9.80;65.30
55771;DHT22;41687;-33.234;-60.334;2023-08-08T00:06:05;9.80;65.00
55771;DHT22;41687;-33.234;-60.334;2023-08-08T00:08:33;9.80;64.90
55771;DHT22;41687;-33.234;-60.334;2023-08-08T00:11:00;9.70;65.00
55771;DHT22;41687;-33.234;-60.334;2023-08-08T00:13:28;9.60;65.20
55771;DHT22;41687;-33.234;-60.334;2023-08-08T00:15:56;9.60;65.20
55771;DHT22;41687;-33.234;-60.334;2023-08-08T00:18:23;9.60;65.40
55771;DHT22;41687;-33.234;-60.334;2023-08-08T00:20:50;9.50;65.80
55771;DHT22;41687;-33.234;-60.334;2023-08-08T00:23:18;9.60;65.40
55771;DHT22;41687;-33.234;-60.334;2023-08-08T00:25:46;9.50;65.20
55771;DHT22;41687;-33.234;-60.334;2023-08-08T00:28:18;9.50;65.40
55771;DHT22;41687;-33.234;-60.334;2023-08-08T00:30:45;9.40;65.30
55771;DHT22;41687;-33.234;-60.334;2023-08-08T00:33:13;9.40;65.10
55771;DHT22;41687;-33.234;-60.334;2023-08-08T00:35:40;9.30;65.20
55771;DHT22;41687;-33.234;-60.334;2023-08-08T00:38:08;9.30;65.50
55771;DHT22;41687;-33.234;-60.334;2023-08-08T00:40:36;9.30;66.20
55771;DHT22;41687;-33.234;-60.334;2023-08-08T00:43:05;9.40;65.20
55771;DHT22;41687;-33.234;-60.334;2023-08-08T00:45:32;9.30;65.20
55771;DHT22;41687;-33.234;-60.334;2023-08-08T00:48:00;9.40;65.30
55771;DHT22;41687;-33.234;-60.334;2023-08-08T00:50:28;9.30;65.90
55771;DHT22;41687;-33.234;-60.334;2023-08-08T00:52:57;9.30;66.30
55771;DHT22;41687;-33.234;-60.334;2023-08-08T00:55:24;9.30;66.40
55771;DHT22;41687;-33.234;-60.334;2023-08-08T00:57:53;9.30;66.00
55771;DHT22;41687;-33.234;-60.334;2023-08-08T01:00:20;9.20;66.60
55771;DHT22;41687;-33.234;-60.334;2023-08-08T01:02:48;9.20;66.70
55771;DHT22;41687;-33.234;-60.334;2023-08-08T01:05:15;9.20;66.80
55771;DHT22;41687;-33.234;-60.334;2023-08-08T01:10:29;9.20;67.40
55771;DHT22;41687;-33.234;-60.334;2023-08-08T01:13:04;9.20;67.30
55771;DHT22;41687;-33.234;-60.334;2023-08-08T01:15:34;9.10;66.70
55771;DHT22;41687;-33.234;-60.334;2023-08-08T01:18:06;9.10;66.50
55771;DHT22;41687;-33.234;-60.334;2023-08-08T01:20:34;9.00;67.10
55771;DHT22;41687;-33.234;-60.334;2023-08-08T01:23:26;9.00;66.90
55771;DHT22;41687;-33.234;-60.334;2023-08-08T01:25:57;9.00;67.50
55771;DHT22;41687;-33.234;-60.334;2023-08-08T01:28:26;8.80;67.50
55771;DHT22;41687;-33.234;-60.334;2023-08-08T01:30:55;8.90;67.30
55771;DHT22;41687;-33.234;-60.334;2023-08-08T01:33:22;8.90;67.20
55771;DHT22;41687;-33.234;-60.334;2023-08-08T01:35:56;8.90;67.20
55771;DHT22;41687;-33.234;-60.334;2023-08-08T01:38:36;9.00;67.40
55771;DHT22;41687;-33.234;-60.334;2023-08-08T01:41:06;8.90;67.60
55771;DHT22;41687;-33.234;-60.334;2023-08-08T01:43:38;8.80;68.20
55771;DHT22;41687;-33.234;-60.334;2023-08-08T01:46:07;8.80;68.50
55771;DHT22;41687;-33.234;-60.334;2023-08-08T01:48:35;8.90;68.40
55771;DHT22;41687;-33.234;-60.334;2023-08-08T01:51:03;8.90;68.30
55771;DHT22;41687;-33.234;-60.334;2023-08-08T01:53:31;8.80;68.20
55771;DHT22;41687;-33.234;-60.334;2023-08-08T01:55:59;8.70;68.30
55771;DHT22;41687;-33.234;-60.334;2023-08-08T01:58:27;8.60;68.60
55771;DHT22;41687;-33.234;-60.334;2023-08-08T02:00:54;8.50;68.80
55771;DHT22;41687;-33.234;-60.334;2023-08-08T02:03:22;8.60;68.70
55771;DHT22;41687;-33.234;-60.334;2023-08-08T02:05:50;8.60;68.70
55771;DHT22;41687;-33.234;-60.334;2023-08-08T02:08:17;8.30;69.50
55771;DHT22;41687;-33.234;-60.334;2023-08-08T02:10:45;8.40;69.00
55771;DHT22;41687;-33.234;-60.334;2023-08-08T02:13:12;8.40;69.50
55771;DHT22;41687;-33.234;-60.334;2023-08-08T02:15:40;8.30;69.10
55771;DHT22;41687;-33.234;-60.334;2023-08-08T02:18:07;8.30;69.60
55771;DHT22;41687;-33.234;-60.334;2023-08-08T02:20:37;8.30;69.70
55771;DHT22;41687;-33.234;-60.334;2023-08-08T02:23:05;8.30;69.30
55771;DHT22;41687;-33.234;-60.334;2023-08-08T02:25:33;8.20;69.80
55771;DHT22;41687;-33.234;-60.334;2023-08-08T02:28:00;8.10;69.50
55771;DHT22;41687;-33.234;-60.334;2023-08-08T02:30:28;8.20;70.00
55771;DHT22;41687;-33.234;-60.334;2023-08-08T02:32:55;8.20;70.10
55771;DHT22;41687;-33.234;-60.334;2023-08-08T02:35:25;8.20;70.50
55771;DHT22;41687;-33.234;-60.334;2023-08-08T02:37:53;8.20;70.60
55771;DHT22;41687;-33.234;-60.334;2023-08-08T02:40:20;8.20;70.50
55771;DHT22;41687;-33.234;-60.334;2023-08-08T02:42:50;8.20;70.40
55771;DHT22;41687;-33.234;-60.334;2023-08-08T02:45:18;8.10;70.30
55771;DHT22;41687;-33.234;-60.334;2023-08-08T02:47:45;8.20;70.20
55771;DHT22;41687;-33.234;-60.334;2023-08-08T02:50:13;8.10;70.50
55771;DHT22;41687;-33.234;-60.334;2023-08-08T02:52:41;8.00;70.60
55771;DHT22;41687;-33.234;-60.334;2023-08-08T02:55:10;8.10;70.50
55771;DHT22;41687;-33.234;-60.334;2023-08-08T02:57:39;8.10;70.60
55771;DHT22;41687;-33.234;-60.334;2023-08-08T03:00:07;8.10;70.70
55771;DHT22;41687;-33.234;-60.334;2023-08-08T03:02:41;8.10;71.70
55771;DHT22;41687;-33.234;-60.334;2023-08-08T03:05:09;8.10;71.10
55771;DHT22;41687;-33.234;-60.334;2023-08-08T03:07:36;8.00;71.10
55771;DHT22;41687;-33.234;-60.334;2023-08-08T03:10:05;7.90;71.60
55771;DHT22;41687;-33.234;-60.334;2023-08-08T03:12:34;7.90;71.60
55771;DHT22;41687;-33.234;-60.334;2023-08-08T03:15:01;7.70;71.90
55771;DHT22;41687;-33.234;-60.334;2023-08-08T03:17:29;7.70;72.20
55771;DHT22;41687;-33.234;-60.334;2023-08-08T03:19:57;7.60;72.50
55771;DHT22;41687;-33.234;-60.334;2023-08-08T03:22:26;7.60;72.40
55771;DHT22;41687;-33.234;-60.334;2023-08-08T03:24:53;7.60;72.80
55771;DHT22;41687;-33.234;-60.334;2023-08-08T03:27:20;7.50;73.50
55771;DHT22;41687;-33.234;-60.334;2023-08-08T03:29:52;7.50;73.50
55771;DHT22;41687;-33.234;-60.334;2023-08-08T03:32:19;7.60;73.50
55771;DHT22;41687;-33.234;-60.334;2023-08-08T03:34:47;7.50;74.00
55771;DHT22;41687;-33.234;-60.334;2023-08-08T03:37:15;7.50;74.40
55771;DHT22;41687;-33.234;-60.334;2023-08-08T03:39:43;7.40;75.30
55771;DHT22;41687;-33.234;-60.334;2023-08-08T03:42:11;7.40;75.10
55771;DHT22;41687;-33.234;-60.334;2023-08-08T03:44:38;7.30;75.70
55771;DHT22;41687;-33.234;-60.334;2023-08-08T03:47:06;7.30;76.20
55771;DHT22;41687;-33.234;-60.334;2023-08-08T03:49:34;7.40;76.70
55771;DHT22;41687;-33.234;-60.334;2023-08-08T03:52:01;7.30;76.70
55771;DHT22;41687;-33.234;-60.334;2023-08-08T03:54:30;7.30;77.90
55771;DHT22;41687;-33.234;-60.334;2023-08-08T03:56:58;7.30;78.10
55771;DHT22;41687;-33.234;-60.334;2023-08-08T03:59:25;7.20;78.60
55771;DHT22;41687;-33.234;-60.334;2023-08-08T04:01:53;7.30;79.00
55771;DHT22;41687;-33.234;-60.334;2023-08-08T04:04:21;7.20;79.40
55771;DHT22;41687;-33.234;-60.334;2023-08-08T04:06:49;7.10;79.70
55771;DHT22;41687;-33.234;-60.334;2023-08-08T04:09:17;7.00;80.80
55771;DHT22;41687;-33.234;-60.334;2023-08-08T04:11:44;7.10;81.00
55771;DHT22;41687;-33.234;-60.334;2023-08-08T04:14:12;7.00;81.10
55771;DHT22;41687;-33.234;-60.334;2023-08-08T04:16:40;7.00;81.70
55771;DHT22;41687;-33.234;-60.334;2023-08-08T04:19:07;7.10;82.10
55771;DHT22;41687;-33.234;-60.334;2023-08-08T04:21:35;7.10;82.20
55771;DHT22;41687;-33.234;-60.334;2023-08-08T04:24:02;7.10;82.20
55771;DHT22;41687;-33.234;-60.334;2023-08-08T04:26:30;7.10;82.00
55771;DHT22;41687;-33.234;-60.334;2023-08-08T04:28:57;7.20;82.20
55771;DHT22;41687;-33.234;-60.334;2023-08-08T04:31:25;7.10;82.20
55771;DHT22;41687;-33.234;-60.334;2023-08-08T04:33:53;7.10;82.40
55771;DHT22;41687;-33.234;-60.334;2023-08-08T04:36:25;7.20;82.20
55771;DHT22;41687;-33.234;-60.334;2023-08-08T04:38:53;7.10;82.30
55771;DHT22;41687;-33.234;-60.334;2023-08-08T04:41:21;7.10;82.60
55771;DHT22;41687;-33.234;-60.334;2023-08-08T04:43:48;7.10;83.10
55771;DHT22;41687;-33.234;-60.334;2023-08-08T04:46:16;7.10;82.80
55771;DHT22;41687;-33.234;-60.334;2023-08-08T04:48:43;7.10;82.80
55771;DHT22;41687;-33.234;-60.334;2023-08-08T04:51:11;7.00;83.10
55771;DHT22;41687;-33.234;-60.334;2023-08-08T04:53:40;7.00;83.60
55771;DHT22;41687;-33.234;-60.334;2023-08-08T04:56:07;7.00;83.70
55771;DHT22;41687;-33.234;-60.334;2023-08-08T04:58:34;7.10;83.50
55771;DHT22;41687;-33.234;-60.334;2023-08-08T05:01:02;7.10;83.30
55771;DHT22;41687;-33.234;-60.334;2023-08-08T05:03:30;7.10;83.60
55771;DHT22;41687;-33.234;-60.334;2023-08-08T05:05:57;7.00;83.90
55771;DHT22;41687;-33.234;-60.334;2023-08-08T05:08:26;7.00;84.60
55771;DHT22;41687;-33.234;-60.334;2023-08-08T05:10:54;7.10;84.00
55771;DHT22;41687;-33.234;-60.334;2023-08-08T05:13:22;7.00;84.10
55771;DHT22;41687;-33.234;-60.334;2023-08-08T05:15:49;7.00;84.20
55771;DHT22;41687;-33.234;-60.334;2023-08-08T05:18:16;6.90;84.60
55771;DHT22;41687;-33.234;-60.334;2023-08-08T05:20:44;7.00;85.10
55771;DHT22;41687;-33.234;-60.334;2023-08-08T05:23:12;7.10;84.60
55771;DHT22;41687;-33.234;-60.334;2023-08-08T05:25:40;7.00;84.40
55771;DHT22;41687;-33.234;-60.334;2023-08-08T05:28:07;7.00;84.50
55771;DHT22;41687;-33.234;-60.334;2023-08-08T05:30:35;7.00;84.70
55771;DHT22;41687;-33.234;-60.334;2023-08-08T05:33:02;7.00;84.70
55771;DHT22;41687;-33.234;-60.334;2023-08-08T05:35:30;6.90;85.00
55771;DHT22;41687;-33.234;-60.334;2023-08-08T05:37:58;7.00;85.30
55771;DHT22;41687;-33.234;-60.334;2023-08-08T05:40:26;6.80;85.80
55771;DHT22;41687;-33.234;-60.334;2023-08-08T05:42:53;6.80;86.20
55771;DHT22;41687;-33.234;-60.334;2023-08-08T05:45:20;6.90;85.90
55771;DHT22;41687;-33.234;-60.334;2023-08-08T05:47:48;6.80;86.20
55771;DHT22;41687;-33.234;-60.334;2023-08-08T05:50:16;6.60;86.80
55771;DHT22;41687;-33.234;-60.334;2023-08-08T05:52:43;6.60;87.10
55771;DHT22;41687;-33.234;-60.334;2023-08-08T05:55:11;6.70;87.30
55771;DHT22;41687;-33.234;-60.334;2023-08-08T05:57:38;6.70;87.50
55771;DHT22;41687;-33.234;-60.334;2023-08-08T06:00:06;6.60;87.90
55771;DHT22;41687;-33.234;-60.334;2023-08-08T06:02:42;6.50;88.50
55771;DHT22;41687;-33.234;-60.334;2023-08-08T06:05:11;6.50;88.60
55771;DHT22;41687;-33.234;-60.334;2023-08-08T06:07:39;6.60;88.70
55771;DHT22;41687;-33.234;-60.334;2023-08-08T06:10:07;6.50;89.10
55771;DHT22;41687;-33.234;-60.334;2023-08-08T06:12:34;6.60;89.10
55771;DHT22;41687;-33.234;-60.334;2023-08-08T06:15:03;6.50;89.00
55771;DHT22;41687;-33.234;-60.334;2023-08-08T06:17:33;6.50;89.80
55771;DHT22;41687;-33.234;-60.334;2023-08-08T06:20:01;6.30;90.20
55771;DHT22;41687;-33.234;-60.334;2023-08-08T06:22:29;6.40;90.00
55771;DHT22;41687;-33.234;-60.334;2023-08-08T06:24:56;6.40;89.90
55771;DHT22;41687;-33.234;-60.334;2023-08-08T06:27:24;6.40;90.00
55771;DHT22;41687;-33.234;-60.334;2023-08-08T06:29:51;6.50;89.30
55771;DHT22;41687;-33.234;-60.334;2023-08-08T06:32:19;6.40;89.60
55771;DHT22;41687;-33.234;-60.334;2023-08-08T06:34:46;6.50;89.90
55771;DHT22;41687;-33.234;-60.334;2023-08-08T06:37:14;6.40;90.10
55771;DHT22;41687;-33.234;-60.334;2023-08-08T06:39:42;6.30;90.10
55771;DHT22;41687;-33.234;-60.334;2023-08-08T06:42:10;6.30;90.30
55771;DHT22;41687;-33.234;-60.334;2023-08-08T06:44:47;6.30;90.50
55771;DHT22;41687;-33.234;-60.334;2023-08-08T06:47:16;6.40;90.20
55771;DHT22;41687;-33.234;-60.334;2023-08-08T06:49:43;6.40;90.20
55771;DHT22;41687;-33.234;-60.334;2023-08-08T06:52:11;6.40;90.10
55771;DHT22;41687;-33.234;-60.334;2023-08-08T06:54:39;6.40;90.10
55771;DHT22;41687;-33.234;-60.334;2023-08-08T06:57:07;6.30;90.20
55771;DHT22;41687;-33.234;-60.334;2023-08-08T06:59:35;6.30;90.40
55771;DHT22;41687;-33.234;-60.334;2023-08-08T07:02:03;6.20;90.50
55771;DHT22;41687;-33.234;-60.334;2023-08-08T07:04:30;6.20;90.70
55771;DHT22;41687;-33.234;-60.334;2023-08-08T07:06:58;6.10;90.60
55771;DHT22;41687;-33.234;-60.334;2023-08-08T07:09:25;6.00;91.00
55771;DHT22;41687;-33.234;-60.334;2023-08-08T07:11:53;6.10;91.30
55771;DHT22;41687;-33.234;-60.334;2023-08-08T07:14:20;6.10;91.20
55771;DHT22;41687;-33.234;-60.334;2023-08-08T07:16:48;6.00;91.40
55771;DHT22;41687;-33.234;-60.334;2023-08-08T07:19:16;6.00;91.40
55771;DHT22;41687;-33.234;-60.334;2023-08-08T07:21:44;6.00;91.70
55771;DHT22;41687;-33.234;-60.334;2023-08-08T07:24:11;6.00;91.50
55771;DHT22;41687;-33.234;-60.334;2023-08-08T07:26:39;6.10;91.30
55771;DHT22;41687;-33.234;-60.334;2023-08-08T07:29:06;6.00;91.30
55771;DHT22;41687;-33.234;-60.334;2023-08-08T07:31:34;6.00;91.50
55771;DHT22;41687;-33.234;-60.334;2023-08-08T07:34:01;5.90;91.60
55771;DHT22;41687;-33.234;-60.334;2023-08-08T07:36:29;6.00;91.80
55771;DHT22;41687;-33.234;-60.334;2023-08-08T07:38:57;5.90;91.90
55771;DHT22;41687;-33.234;-60.334;2023-08-08T07:41:29;5.80;92.00
55771;DHT22;41687;-33.234;-60.334;2023-08-08T07:43:56;5.90;92.20
55771;DHT22;41687;-33.234;-60.334;2023-08-08T07:46:24;5.70;92.50
55771;DHT22;41687;-33.234;-60.334;2023-08-08T07:48:52;5.70;92.70
55771;DHT22;41687;-33.234;-60.334;2023-08-08T07:51:19;5.70;92.80
55771;DHT22;41687;-33.234;-60.334;2023-08-08T07:53:47;5.70;92.50
55771;DHT22;41687;-33.234;-60.334;2023-08-08T07:56:15;5.70;93.00
55771;DHT22;41687;-33.234;-60.334;2023-08-08T07:58:42;5.80;92.80
55771;DHT22;41687;-33.234;-60.334;2023-08-08T08:01:10;5.70;92.70
55771;DHT22;41687;-33.234;-60.334;2023-08-08T08:03:39;5.80;93.10
55771;DHT22;41687;-33.234;-60.334;2023-08-08T08:06:06;5.80;93.20
55771;DHT22;41687;-33.234;-60.334;2023-08-08T08:08:34;5.80;93.20
55771;DHT22;41687;-33.234;-60.334;2023-08-08T08:11:02;5.80;93.40
55771;DHT22;41687;-33.234;-60.334;2023-08-08T08:13:30;5.70;93.60
55771;DHT22;41687;-33.234;-60.334;2023-08-08T08:15:57;5.70;93.80
55771;DHT22;41687;-33.234;-60.334;2023-08-08T08:18:25;5.70;93.90
55771;DHT22;41687;-33.234;-60.334;2023-08-08T08:20:54;5.70;93.90
55771;DHT22;41687;-33.234;-60.334;2023-08-08T08:23:22;5.60;94.20
55771;DHT22;41687;-33.234;-60.334;2023-08-08T08:25:50;5.70;94.20
55771;DHT22;41687;-33.234;-60.334;2023-08-08T08:28:17;5.70;94.30
55771;DHT22;41687;-33.234;-60.334;2023-08-08T08:30:44;5.70;94.20
55771;DHT22;41687;-33.234;-60.334;2023-08-08T08:33:12;5.80;94.00
55771;DHT22;41687;-33.234;-60.334;2023-08-08T08:35:40;5.80;94.50
55771;DHT22;41687;-33.234;-60.334;2023-08-08T08:38:07;5.80;94.50
55771;DHT22;41687;-33.234;-60.334;2023-08-08T08:40:37;5.80;94.80
55771;DHT22;41687;-33.234;-60.334;2023-08-08T08:43:07;5.80;94.60
55771;DHT22;41687;-33.234;-60.334;2023-08-08T08:45:38;5.80;94.60
55771;DHT22;41687;-33.234;-60.334;2023-08-08T08:48:09;5.80;95.00
55771;DHT22;41687;-33.234;-60.334;2023-08-08T08:50:41;5.80;94.90
55771;DHT22;41687;-33.234;-60.334;2023-08-08T08:53:10;5.80;94.50
55771;DHT22;41687;-33.234;-60.334;2023-08-08T08:55:39;5.80;94.30
55771;DHT22;41687;-33.234;-60.334;2023-08-08T08:58:07;5.80;94.50
55771;DHT22;41687;-33.234;-60.334;2023-08-08T09:00:36;5.80;94.50
55771;DHT22;41687;-33.234;-60.334;2023-08-08T09:03:04;5.80;94.30
55771;DHT22;41687;-33.234;-60.334;2023-08-08T09:05:32;5.90;93.90
55771;DHT22;41687;-33.234;-60.334;2023-08-08T09:08:00;5.80;93.80
55771;DHT22;41687;-33.234;-60.334;2023-08-08T09:10:31;5.70;94.20
55771;DHT22;41687;-33.234;-60.334;2023-08-08T09:12:59;5.60;94.40
55771;DHT22;41687;-33.234;-60.334;2023-08-08T09:15:30;5.60;94.50
55771;DHT22;41687;-33.234;-60.334;2023-08-08T09:17:58;5.60;94.40
55771;DHT22;41687;-33.234;-60.334;2023-08-08T09:20:26;5.70;94.30
55771;DHT22;41687;-33.234;-60.334;2023-08-08T09:22:57;5.70;94.40
55771;DHT22;41687;-33.234;-60.334;2023-08-08T09:25:25;5.60;94.70
55771;DHT22;41687;-33.234;-60.334;2023-08-08T09:27:54;5.60;94.30
55771;DHT22;41687;-33.234;-60.334;2023-08-08T09:30:22;5.60;94.70
55771;DHT22;41687;-33.234;-60.334;2023-08-08T09:32:50;5.60;94.80
55771;DHT22;41687;-33.234;-60.334;2023-08-08T09:35:17;5.60;94.60
55771;DHT22;41687;-33.234;-60.334;2023-08-08T09:37:45;5.50;95.20
55771;DHT22;41687;-33.234;-60.334;2023-08-08T09:40:13;5.50;95.20
55771;DHT22;41687;-33.234;-60.334;2023-08-08T09:42:41;5.40;95.40
55771;DHT22;41687;-33.234;-60.334;2023-08-08T09:45:09;5.40;95.70
55771;DHT22;41687;-33.234;-60.334;2023-08-08T09:47:37;5.40;95.90
55771;DHT22;41687;-33.234;-60.334;2023-08-08T09:50:05;5.50;96.00
55771;DHT22;41687;-33.234;-60.334;2023-08-08T09:52:35;5.50;96.00
55771;DHT22;41687;-33.234;-60.334;2023-08-08T09:55:07;5.40;96.40
55771;DHT22;41687;-33.234;-60.334;2023-08-08T09:57:35;5.40;96.90
55771;DHT22;41687;-33.234;-60.334;2023-08-08T10:00:06;5.40;96.70
55771;DHT22;41687;-33.234;-60.334;2023-08-08T10:02:37;5.40;96.60
55771;DHT22;41687;-33.234;-60.334;2023-08-08T10:05:07;5.40;96.50
55771;DHT22;41687;-33.234;-60.334;2023-08-08T10:07:35;5.40;96.80
55771;DHT22;41687;-33.234;-60.334;2023-08-08T10:10:03;5.50;96.50
55771;DHT22;41687;-33.234;-60.334;2023-08-08T10:12:31;5.50;96.40
55771;DHT22;41687;-33.234;-60.334;2023-08-08T10:14:59;5.40;96.30
55771;DHT22;41687;-33.234;-60.334;2023-08-08T10:17:27;5.40;96.70
55771;DHT22;41687;-33.234;-60.334;2023-08-08T10:19:55;5.40;96.70
55771;DHT22;41687;-33.234;-60.334;2023-08-08T10:22:24;5.30;96.90
55771;DHT22;41687;-33.234;-60.334;2023-08-08T10:24:53;5.30;96.90
55771;DHT22;41687;-33.234;-60.334;2023-08-08T10:27:48;5.20;97.40
55771;DHT22;41687;-33.234;-60.334;2023-08-08T10:30:16;5.30;97.30
55771;DHT22;41687;-33.234;-60.334;2023-08-08T10:32:45;5.30;97.10
55771;DHT22;41687;-33.234;-60.334;2023-08-08T10:35:17;5.20;97.40
55771;DHT22;41687;-33.234;-60.334;2023-08-08T10:37:54;5.30;97.80
55771;DHT22;41687;-33.234;-60.334;2023-08-08T10:40:23;5.30;97.40
55771;DHT22;41687;-33.234;-60.334;2023-08-08T10:42:52;5.40;97.20
55771;DHT22;41687;-33.234;-60.334;2023-08-08T10:45:19;5.50;96.80
55771;DHT22;41687;-33.234;-60.334;2023-08-08T10:47:47;5.50;96.60
55771;DHT22;41687;-33.234;-60.334;2023-08-08T10:50:16;5.40;96.70
55771;DHT22;41687;-33.234;-60.334;2023-08-08T10:52:52;5.50;96.70
55771;DHT22;41687;-33.234;-60.334;2023-08-08T10:55:21;5.60;96.40
55771;DHT22;41687;-33.234;-60.334;2023-08-08T11:00:30;5.60;95.80
55771;DHT22;41687;-33.234;-60.334;2023-08-08T11:02:59;5.60;95.50
55771;DHT22;41687;-33.234;-60.334;2023-08-08T11:05:31;5.70;95.10
55771;DHT22;41687;-33.234;-60.334;2023-08-08T11:08:00;5.80;95.00
55771;DHT22;41687;-33.234;-60.334;2023-08-08T11:10:28;5.80;95.10
55771;DHT22;41687;-33.234;-60.334;2023-08-08T11:13:04;5.80;94.90
55771;DHT22;41687;-33.234;-60.334;2023-08-08T11:15:33;6.10;94.30
55771;DHT22;41687;-33.234;-60.334;2023-08-08T11:18:02;6.20;94.00
55771;DHT22;41687;-33.234;-60.334;2023-08-08T11:20:31;6.60;93.80
55771;DHT22;41687;-33.234;-60.334;2023-08-08T11:22:59;7.60;91.80
55771;DHT22;41687;-33.234;-60.334;2023-08-08T11:25:29;8.70;90.10
55771;DHT22;41687;-33.234;-60.334;2023-08-08T11:27:58;10.00;83.70
55771;DHT22;41687;-33.234;-60.334;2023-08-08T11:30:29;10.70;79.10
55771;DHT22;41687;-33.234;-60.334;2023-08-08T11:32:57;11.90;74.60
55771;DHT22;41687;-33.234;-60.334;2023-08-08T11:35:25;13.00;69.90
55771;DHT22;41687;-33.234;-60.334;2023-08-08T11:37:58;13.60;67.00
55771;DHT22;41687;-33.234;-60.334;2023-08-08T11:40:28;14.40;62.20
55771;DHT22;41687;-33.234;-60.334;2023-08-08T11:42:57;15.00;59.70
55771;DHT22;41687;-33.234;-60.334;2023-08-08T11:45:25;15.70;56.50
55771;DHT22;41687;-33.234;-60.334;2023-08-08T11:47:54;16.30;54.50
55771;DHT22;41687;-33.234;-60.334;2023-08-08T11:50:23;16.70;50.60
55771;DHT22;41687;-33.234;-60.334;2023-08-08T11:52:53;17.00;47.10
55771;DHT22;41687;-33.234;-60.334;2023-08-08T11:55:28;17.40;47.50
55771;DHT22;41687;-33.234;-60.334;2023-08-08T11:57:57;16.40;47.40
55771;DHT22;41687;-33.234;-60.334;2023-08-08T12:00:30;15.30;48.00
55771;DHT22;41687;-33.234;-60.334;2023-08-08T12:03:00;14.80;50.60
55771;DHT22;41687;-33.234;-60.334;2023-08-08T12:05:27;15.70;49.20
55771;DHT22;41687;-33.234;-60.334;2023-08-08T12:07:55;15.70;51.40
55771;DHT22;41687;-33.234;-60.334;2023-08-08T12:10:23;16.20;48.80
55771;DHT22;41687;-33.234;-60.334;2023-08-08T12:12:56;16.60;48.20
55771;DHT22;41687;-33.234;-60.334;2023-08-08T12:15:33;16.90;46.40
55771;DHT22;41687;-33.234;-60.334;2023-08-08T12:18:02;16.90;46.80
55771;DHT22;41687;-33.234;-60.334;2023-08-08T12:20:31;16.50;47.90
55771;DHT22;41687;-33.234;-60.334;2023-08-08T12:22:59;15.90;46.20
55771;DHT22;41687;-33.234;-60.334;2023-08-08T12:25:26;15.80;48.40
55771;DHT22;41687;-33.234;-60.334;2023-08-08T12:27:55;15.60;48.80
55771;DHT22;41687;-33.234;-60.334;2023-08-08T12:30:22;15.00;49.90
55771;DHT22;41687;-33.234;-60.334;2023-08-08T12:32:50;14.70;51.60
55771;DHT22;41687;-33.234;-60.334;2023-08-08T12:35:18;14.80;51.40
55771;DHT22;41687;-33.234;-60.334;2023-08-08T12:37:47;14.80;51.80
55771;DHT22;41687;-33.234;-60.334;2023-08-08T12:40:14;14.70;51.40
55771;DHT22;41687;-33.234;-60.334;2023-08-08T12:42:42;14.80;52.10
55771;DHT22;41687;-33.234;-60.334;2023-08-08T12:45:10;14.80;51.70
55771;DHT22;41687;-33.234;-60.334;2023-08-08T12:47:38;15.00;51.00
55771;DHT22;41687;-33.234;-60.334;2023-08-08T12:50:06;15.20;52.30
55771;DHT22;41687;-33.234;-60.334;2023-08-08T12:52:35;15.00;52.40
55771;DHT22;41687;-33.234;-60.334;2023-08-08T12:55:05;14.90;53.00
55771;DHT22;41687;-33.234;-60.334;2023-08-08T12:57:34;14.90;52.00
55771;DHT22;41687;-33.234;-60.334;2023-08-08T13:00:01;14.90;52.60
55771;DHT22;41687;-33.234;-60.334;2023-08-08T13:02:29;14.80;53.20
55771;DHT22;41687;-33.234;-60.334;2023-08-08T13:04:57;14.40;52.90
55771;DHT22;41687;-33.234;-60.334;2023-08-08T13:07:24;14.60;54.00
55771;DHT22;41687;-33.234;-60.334;2023-08-08T13:09:52;14.80;54.20
55771;DHT22;41687;-33.234;-60.334;2023-08-08T13:12:20;14.60;53.80
55771;DHT22;41687;-33.234;-60.334;2023-08-08T13:14:48;13.60;53.00
55771;DHT22;41687;-33.234;-60.334;2023-08-08T13:17:15;13.70;55.90
55771;DHT22;41687;-33.234;-60.334;2023-08-08T13:19:43;12.90;55.70
55771;DHT22;41687;-33.234;-60.334;2023-08-08T13:22:10;13.10;58.30
55771;DHT22;41687;-33.234;-60.334;2023-08-08T13:24:39;13.10;57.60
55771;DHT22;41687;-33.234;-60.334;2023-08-08T13:27:06;13.10;59.40
55771;DHT22;41687;-33.234;-60.334;2023-08-08T13:29:34;12.80;58.50
55771;DHT22;41687;-33.234;-60.334;2023-08-08T13:32:01;13.00;60.50
55771;DHT22;41687;-33.234;-60.334;2023-08-08T13:34:29;12.70;59.80
55771;DHT22;41687;-33.234;-60.334;2023-08-08T13:36:56;12.50;60.50
55771;DHT22;41687;-33.234;-60.334;2023-08-08T13:39:24;12.30;61.80
55771;DHT22;41687;-33.234;-60.334;2023-08-08T13:41:51;12.30;61.80
55771;DHT22;41687;-33.234;-60.334;2023-08-08T13:44:19;12.30;61.90
55771;DHT22;41687;-33.234;-60.334;2023-08-08T13:46:46;12.30;63.00
55771;DHT22;41687;-33.234;-60.334;2023-08-08T13:49:14;12.20;63.20
55771;DHT22;41687;-33.234;-60.334;2023-08-08T13:51:42;12.40;63.20
55771;DHT22;41687;-33.234;-60.334;2023-08-08T13:54:10;12.20;62.40
55771;DHT22;41687;-33.234;-60.334;2023-08-08T13:56:38;12.40;63.40
55771;DHT22;41687;-33.234;-60.334;2023-08-08T13:59:06;12.10;63.40
55771;DHT22;41687;-33.234;-60.334;2023-08-08T14:01:33;12.10;64.30
55771;DHT22;41687;-33.234;-60.334;2023-08-08T14:04:02;12.00;64.00
55771;DHT22;41687;-33.234;-60.334;2023-08-08T14:06:29;12.00;64.80
55771;DHT22;41687;-33.234;-60.334;2023-08-08T14:08:58;12.10;65.20
55771;DHT22;41687;-33.234;-60.334;2023-08-08T14:11:25;12.00;65.40
55771;DHT22;41687;-33.234;-60.334;2023-08-08T14:13:52;11.90;65.40
55771;DHT22;41687;-33.234;-60.334;2023-08-08T14:16:20;11.60;65.90
55771;DHT22;41687;-33.234;-60.334;2023-08-08T14:18:48;11.80;66.20
55771;DHT22;41687;-33.234;-60.334;2023-08-08T14:21:15;11.60;64.80
55771;DHT22;41687;-33.234;-60.334;2023-08-08T14:23:43;11.50;67.70
55771;DHT22;41687;-33.234;-60.334;2023-08-08T14:26:11;11.70;67.20
55771;DHT22;41687;-33.234;-60.334;2023-08-08T14:28:39;11.80;67.30
55771;DHT22;41687;-33.234;-60.334;2023-08-08T14:31:06;11.50;67.10
55771;DHT22;41687;-33.234;-60.334;2023-08-08T14:33:34;11.70;67.50
55771;DHT22;41687;-33.234;-60.334;2023-08-08T14:36:01;11.90;67.30
55771;DHT22;41687;-33.234;-60.334;2023-08-08T14:38:35;11.90;67.30
55771;DHT22;41687;-33.234;-60.334;2023-08-08T14:41:05;12.10;67.90
55771;DHT22;41687;-33.234;-60.334;2023-08-08T14:43:32;11.80;66.70
55771;DHT22;41687;-33.234;-60.334;2023-08-08T14:46:00;12.00;68.30
55771;DHT22;41687;-33.234;-60.334;2023-08-08T14:48:28;12.00;66.80
55771;DHT22;41687;-33.234;-60.334;2023-08-08T14:50:55;12.20;67.70
55771;DHT22;41687;-33.234;-60.334;2023-08-08T14:53:23;12.30;68.30
55771;DHT22;41687;-33.234;-60.334;2023-08-08T14:55:51;12.40;68.00
55771;DHT22;41687;-33.234;-60.334;2023-08-08T14:58:18;12.40;67.30
55771;DHT22;41687;-33.234;-60.334;2023-08-08T15:00:46;12.20;67.60
55771;DHT22;41687;-33.234;-60.334;2023-08-08T15:03:15;12.00;69.30
55771;DHT22;41687;-33.234;-60.334;2023-08-08T15:05:44;12.00;68.80
55771;DHT22;41687;-33.234;-60.334;2023-08-08T15:08:12;12.00;70.00
55771;DHT22;41687;-33.234;-60.334;2023-08-08T15:10:40;12.10;69.90